createdAt,value
2023-03-22T00:00:21.165Z,17.55
2023-03-22T00:02:26.248Z,21.67
2023-03-22T00:04:29.764Z,21.17
2023-03-22T00:06:33.298Z,20.33
2023-03-22T00:08:38.507Z,17.85
2023-03-22T00:10:43.054Z,20.30
2023-03-22T00:12:46.694Z,17.73
2023-03-22T00:14:49.905Z,20.75
2023-03-22T00:16:53.158Z,19.88
2023-03-22T00:18:56.418Z,17.42
2023-03-22T00:21:00.795Z,21.25
2023-03-22T00:23:04.040Z,23.77
2023-03-22T00:25:09.497Z,20.25
2023-03-22T00:27:12.844Z,23.63
2023-03-22T00:29:17.592Z,20.42
2023-03-22T00:31:21.031Z,18.55
2023-03-22T00:33:24.952Z,23.55
2023-03-22T00:35:28.335Z,21.85
2023-03-22T00:37:38.714Z,23.83
2023-03-22T00:39:42.004Z,23.23
2023-03-22T00:41:46.739Z,24.70
2023-03-22T00:43:51.223Z,23.23
2023-03-22T00:45:54.454Z,22.25
2023-03-22T00:47:57.726Z,21.05
2023-03-22T00:50:01.194Z,22.95
2023-03-22T00:52:04.682Z,22.95
2023-03-22T00:54:08.104Z,23.90
2023-03-22T00:56:14.020Z,21.83
2023-03-22T00:58:28.830Z,27.23
2023-03-22T01:00:33.657Z,23.85
2023-03-22T01:02:37.010Z,21.50
2023-03-22T01:04:40.320Z,25.08
2023-03-22T01:06:43.541Z,21.15
2023-03-22T01:08:46.743Z,19.88
2023-03-22T01:10:53.123Z,18.80
2023-03-22T01:12:56.873Z,25.13
2023-03-22T01:15:01.588Z,24.80
2023-03-22T01:17:05.432Z,23.50
2023-03-22T01:19:08.639Z,25.80
2023-03-22T01:21:12.235Z,23.17
2023-03-22T01:23:15.983Z,19.30
2023-03-22T01:25:19.570Z,21.42
2023-03-22T01:27:22.767Z,21.52
2023-03-22T01:29:26.960Z,23.02
2023-03-22T01:31:31.942Z,22.80
2023-03-22T01:33:35.475Z,19.40
2023-03-22T01:35:39.028Z,22.67
2023-03-22T01:37:43.127Z,20.75
2023-03-22T01:39:46.694Z,25.77
2023-03-22T01:41:52.352Z,25.00
2023-03-22T01:44:09.582Z,21.90
2023-03-22T01:46:13.343Z,22.35
2023-03-22T01:48:25.955Z,23.10
2023-03-22T01:50:29.974Z,21.42
2023-03-22T01:52:33.454Z,24.20
2023-03-22T01:54:44.990Z,24.00
2023-03-22T01:57:11.420Z,25.80
2023-03-22T01:59:17.588Z,23.48
2023-03-22T02:01:36.214Z,23.73
2023-03-22T02:03:49.497Z,20.73
2023-03-22T02:05:53.846Z,25.33
2023-03-22T02:07:59.470Z,21.90
2023-03-22T02:10:06.146Z,23.33
2023-03-22T02:12:28.958Z,22.20
2023-03-22T02:14:55.973Z,22.17
2023-03-22T02:17:34.855Z,22.48
2023-03-22T02:20:29.326Z,21.75
2023-03-22T02:23:08.761Z,22.47
2023-03-22T02:25:34.088Z,23.67
2023-03-22T02:28:13.764Z,25.67
2023-03-22T02:30:39.986Z,22.30
2023-03-22T02:33:03.415Z,22.75
2023-03-22T02:35:38.710Z,23.55
2023-03-22T02:38:01.556Z,24.05
2023-03-22T02:40:12.787Z,22.08
2023-03-22T02:42:28.479Z,19.42
2023-03-22T02:44:42.744Z,20.77
2023-03-22T02:46:49.208Z,25.00
2023-03-22T02:49:01.471Z,20.42
2023-03-22T02:51:09.480Z,23.55
2023-03-22T02:53:18.965Z,21.52
2023-03-22T02:55:28.170Z,22.02
2023-03-22T02:57:37.950Z,19.98
2023-03-22T02:59:43.507Z,22.30
2023-03-22T03:01:50.911Z,21.45
2023-03-22T03:03:57.709Z,23.95
2023-03-22T03:06:06.153Z,23.88
2023-03-22T03:08:13.351Z,26.70
2023-03-22T03:10:20.351Z,22.70
2023-03-22T03:12:27.031Z,23.90
2023-03-22T03:14:33.702Z,20.25
2023-03-22T03:16:37.266Z,23.65
2023-03-22T03:18:45.817Z,18.15
2023-03-22T03:21:02.456Z,20.83
2023-03-22T03:23:17.648Z,21.50
2023-03-22T03:25:29.247Z,19.40
2023-03-22T03:29:45.948Z,20.90
2023-03-22T03:31:54.759Z,21.55
2023-03-22T03:34:06.600Z,21.15
2023-03-22T03:36:12.482Z,22.42
2023-03-22T03:38:19.395Z,23.27
2023-03-22T03:40:27.319Z,21.58
2023-03-22T03:42:31.698Z,26.17
2023-03-22T03:44:38.615Z,19.45
2023-03-22T03:46:42.825Z,20.83
2023-03-22T03:48:50.797Z,20.92
2023-03-22T03:50:55.420Z,20.38
2023-03-22T03:52:58.813Z,19.88
2023-03-22T03:55:02.096Z,22.92
2023-03-22T03:57:08.921Z,21.20
2023-03-22T03:59:15.868Z,21.13
2023-03-22T04:01:21.520Z,21.13
2023-03-22T04:03:32.477Z,25.55
2023-03-22T04:05:47.769Z,23.67
2023-03-22T04:07:51.135Z,22.42
2023-03-22T04:09:54.842Z,24.77
2023-03-22T04:12:03.499Z,20.33
2023-03-22T04:14:06.937Z,20.80
2023-03-22T04:16:11.031Z,20.65
2023-03-22T04:18:15.933Z,19.73
2023-03-22T04:20:19.617Z,23.70
2023-03-22T04:22:23.710Z,20.27
2023-03-22T04:24:27.434Z,17.92
2023-03-22T04:26:30.824Z,20.52
2023-03-22T04:30:57.899Z,19.95
2023-03-22T04:33:23.007Z,20.38
2023-03-22T04:35:46.279Z,18.40
2023-03-22T04:37:50.070Z,19.27
2023-03-22T04:39:56.039Z,20.05
2023-03-22T04:42:10.382Z,22.45
2023-03-22T04:44:14.358Z,20.52
2023-03-22T04:46:25.465Z,18.45
2023-03-22T04:48:41.364Z,19.52
2023-03-22T04:50:46.632Z,18.60
2023-03-22T04:52:50.323Z,19.35
2023-03-22T04:54:53.777Z,18.85
2023-03-22T04:56:56.986Z,18.45
2023-03-22T04:59:02.677Z,22.30
2023-03-22T05:01:06.257Z,19.88
2023-03-22T05:03:09.832Z,20.38
2023-03-22T05:05:18.906Z,20.35
2023-03-22T05:07:23.725Z,20.35
2023-03-22T05:09:31.102Z,18.05
2023-03-22T05:11:34.841Z,17.80
2023-03-22T05:14:01.032Z,20.58
2023-03-22T05:16:05.622Z,18.23
2023-03-22T05:18:20.832Z,22.35
2023-03-22T05:20:25.564Z,18.20
2023-03-22T05:22:50.782Z,18.77
2023-03-22T05:24:55.713Z,18.75
2023-03-22T05:27:03.798Z,22.35
2023-03-22T05:29:08.114Z,18.60
2023-03-22T05:31:34.567Z,19.33
2023-03-22T05:33:39.292Z,19.35
2023-03-22T05:35:49.905Z,17.27
2023-03-22T05:37:53.693Z,20.88
2023-03-22T05:39:58.008Z,18.02
2023-03-22T05:42:11.889Z,17.48
2023-03-22T05:44:15.150Z,18.38
2023-03-22T05:46:28.088Z,19.85
2023-03-22T05:48:54.431Z,15.57
2023-03-22T05:51:00.633Z,17.63
2023-03-22T05:53:06.481Z,16.58
2023-03-22T05:55:20.533Z,19.00
2023-03-22T05:57:25.384Z,18.38
2023-03-22T05:59:28.730Z,15.95
2023-03-22T06:01:33.515Z,18.73
2023-03-22T06:03:58.938Z,18.92
2023-03-22T06:06:13.841Z,17.45
2023-03-22T06:08:26.539Z,16.67
2023-03-22T06:10:30.545Z,17.13
2023-03-22T06:12:34.168Z,15.52
2023-03-22T06:14:49.142Z,15.45
2023-03-22T06:17:10.800Z,16.67
2023-03-22T06:19:13.994Z,19.15
2023-03-22T06:21:18.573Z,18.05
2023-03-22T06:23:22.267Z,15.85
2023-03-22T06:25:25.516Z,14.35
2023-03-22T06:27:28.967Z,15.75
2023-03-22T06:29:32.408Z,15.07
2023-03-22T06:31:38.407Z,17.23
2023-03-22T06:33:45.485Z,15.38
2023-03-22T06:36:01.957Z,14.20
2023-03-22T06:38:16.500Z,15.32
2023-03-22T06:40:20.780Z,17.58
2023-03-22T06:42:24.002Z,12.48
2023-03-22T06:44:36.654Z,13.95
2023-03-22T06:47:12.104Z,11.88
2023-03-22T06:49:33.550Z,13.27
2023-03-22T06:51:36.741Z,14.40
2023-03-22T06:53:41.907Z,11.45
2023-03-22T06:55:45.413Z,13.80
2023-03-22T06:57:54.419Z,13.63
2023-03-22T06:59:57.745Z,15.82
2023-03-22T07:02:01.244Z,11.38
2023-03-22T07:04:04.825Z,13.50
2023-03-22T07:06:09.977Z,13.50
2023-03-22T07:08:17.176Z,14.25
2023-03-22T07:10:28.661Z,14.85
2023-03-22T07:12:32.795Z,12.98
2023-03-22T07:14:41.399Z,13.30
2023-03-22T07:17:04.847Z,14.55
2023-03-22T07:19:08.234Z,13.10
2023-03-22T07:21:12.946Z,13.35
2023-03-22T07:23:18.489Z,12.93
2023-03-22T07:25:27.914Z,14.43
2023-03-22T07:27:40.630Z,14.15
2023-03-22T07:29:44.315Z,12.93
2023-03-22T07:31:48.012Z,10.88
2023-03-22T07:34:20.344Z,12.70
2023-03-22T07:36:48.062Z,19.08
2023-03-22T07:38:52.196Z,11.40
2023-03-22T07:41:03.268Z,11.13
2023-03-22T07:43:22.939Z,14.82
2023-03-22T07:45:40.967Z,15.38
2023-03-22T07:48:13.114Z,17.48
2023-03-22T07:50:31.613Z,16.35
2023-03-22T07:52:37.157Z,15.07
2023-03-22T07:54:40.770Z,15.00
2023-03-22T07:56:48.071Z,14.85
2023-03-22T07:58:51.598Z,15.82
2023-03-22T08:00:55.060Z,18.08
2023-03-22T08:03:18.641Z,13.45
2023-03-22T08:05:40.768Z,17.48
2023-03-22T08:07:44.880Z,16.15
2023-03-22T08:09:50.929Z,16.42
2023-03-22T08:11:55.555Z,15.70
2023-03-22T08:13:59.545Z,15.05
2023-03-22T08:16:03.138Z,16.23
2023-03-22T08:18:08.780Z,15.77
2023-03-22T08:20:18.414Z,15.23
2023-03-22T08:22:29.980Z,17.05
2023-03-22T08:24:51.995Z,17.67
2023-03-22T08:27:04.508Z,17.90
2023-03-22T08:29:23.708Z,14.75
2023-03-22T08:31:27.226Z,16.13
2023-03-22T08:33:30.523Z,17.02
2023-03-22T08:35:33.794Z,13.50
2023-03-22T08:37:37.117Z,17.65
2023-03-22T08:39:42.114Z,17.25
2023-03-22T08:41:56.283Z,15.32
2023-03-22T08:44:03.350Z,15.23
2023-03-22T08:46:07.738Z,16.92
2023-03-22T08:48:11.185Z,13.80
2023-03-22T08:50:35.312Z,18.02
2023-03-22T08:52:53.798Z,16.23
2023-03-22T08:55:04.858Z,15.20
2023-03-22T08:57:40.400Z,16.52
2023-03-22T09:00:10.946Z,13.98
2023-03-22T09:02:27.622Z,14.15
2023-03-22T09:04:32.704Z,16.42
2023-03-22T09:06:37.537Z,12.63
2023-03-22T09:08:41.349Z,12.45
2023-03-22T09:10:52.303Z,12.60
2023-03-22T09:12:58.071Z,14.52
2023-03-22T09:15:01.410Z,12.93
2023-03-22T09:17:08.438Z,12.60
2023-03-22T09:19:11.781Z,13.68
2023-03-22T09:21:17.008Z,13.45
2023-03-22T09:23:30.425Z,11.77
2023-03-22T09:25:33.960Z,13.18
2023-03-22T09:27:37.403Z,13.45
2023-03-22T09:29:40.699Z,12.35
2023-03-22T09:31:49.703Z,12.13
2023-03-22T09:33:58.361Z,15.93
2023-03-22T09:36:02.440Z,13.55
2023-03-22T09:38:08.174Z,11.98
2023-03-22T09:40:13.725Z,13.65
2023-03-22T09:42:27.618Z,15.73
2023-03-22T09:44:35.282Z,14.23
2023-03-22T09:46:42.133Z,10.63
2023-03-22T09:48:48.397Z,9.93
2023-03-22T09:50:55.422Z,13.65
2023-03-22T09:52:59.702Z,10.77
2023-03-22T09:55:03.238Z,13.65
2023-03-22T09:57:12.280Z,13.07
2023-03-22T09:59:23.296Z,13.57
2023-03-22T10:01:37.473Z,15.85
2023-03-22T10:04:13.845Z,13.27
2023-03-22T10:06:21.774Z,11.70
2023-03-22T10:08:42.251Z,11.40
2023-03-22T10:10:45.671Z,9.43
2023-03-22T10:12:55.241Z,13.07
2023-03-22T10:15:06.846Z,12.93
2023-03-22T10:17:13.354Z,12.60
2023-03-22T10:19:24.423Z,11.45
2023-03-22T10:21:29.471Z,11.10
2023-03-22T10:23:39.179Z,11.45
2023-03-22T10:25:44.171Z,10.77
2023-03-22T10:27:50.740Z,11.20
2023-03-22T10:30:00.753Z,15.82
2023-03-22T10:32:16.087Z,13.52
2023-03-22T10:34:23.122Z,8.10
2023-03-22T10:36:34.814Z,10.00
2023-03-22T10:38:44.800Z,11.18
2023-03-22T10:40:50.587Z,10.10
2023-03-22T10:42:57.368Z,9.95
2023-03-22T10:45:03.661Z,8.75
2023-03-22T10:47:11.006Z,9.55
2023-03-22T10:49:20.073Z,10.13
2023-03-22T10:51:29.195Z,12.68
2023-03-22T10:53:39.552Z,13.65
2023-03-22T10:55:44.007Z,7.95
2023-03-22T10:57:57.620Z,10.82
2023-03-22T11:00:01.089Z,11.38
2023-03-22T11:02:04.554Z,10.15
2023-03-22T11:04:11.462Z,9.02
2023-03-22T11:06:17.453Z,9.93
2023-03-22T11:08:20.802Z,8.48
2023-03-22T11:10:32.743Z,9.38
2023-03-22T11:12:39.012Z,6.05
2023-03-22T11:14:44.898Z,9.27
2023-03-22T11:16:54.571Z,9.57
2023-03-22T11:18:59.630Z,8.43
2023-03-22T11:21:08.206Z,9.57
2023-03-22T11:23:14.657Z,8.68
2023-03-22T11:25:22.495Z,8.93
2023-03-22T11:27:29.390Z,8.90
2023-03-22T11:29:41.776Z,7.53
2023-03-22T11:32:02.888Z,6.82
2023-03-22T11:34:18.382Z,10.18
2023-03-22T11:36:21.848Z,9.00
2023-03-22T11:38:30.869Z,8.68
2023-03-22T11:40:36.792Z,9.50
2023-03-22T11:42:41.572Z,6.53
2023-03-22T11:44:45.837Z,13.50
2023-03-22T11:46:55.720Z,7.45
2023-03-22T11:49:01.811Z,6.90
2023-03-22T11:51:09.604Z,7.70
2023-03-22T11:53:16.607Z,5.63
2023-03-22T11:55:20.705Z,9.10
2023-03-22T11:57:27.141Z,8.07
2023-03-22T11:59:37.825Z,6.15
2023-03-22T12:01:48.240Z,5.95
2023-03-22T12:03:56.778Z,6.22
2023-03-22T12:06:04.705Z,7.60
2023-03-22T12:08:17.999Z,10.48
2023-03-22T12:10:27.873Z,5.95
2023-03-22T12:12:34.573Z,8.30
2023-03-22T12:14:45.909Z,8.93
2023-03-22T12:19:05.951Z,7.72
2023-03-22T12:21:11.356Z,10.02
2023-03-22T12:23:17.214Z,9.50
2023-03-22T12:25:24.448Z,9.18
2023-03-22T12:27:34.333Z,10.40
2023-03-22T12:29:43.954Z,8.18
2023-03-22T12:31:57.373Z,8.60
2023-03-22T12:34:04.394Z,13.45
2023-03-22T12:36:09.022Z,8.68
2023-03-22T12:38:25.161Z,6.57
2023-03-22T12:40:30.295Z,6.95
2023-03-22T12:42:47.901Z,8.10
2023-03-22T12:45:05.113Z,7.50
2023-03-22T12:47:16.899Z,8.48
2023-03-22T12:49:28.860Z,6.97
2023-03-22T12:51:32.129Z,9.45
2023-03-22T12:53:42.464Z,6.93
2023-03-22T12:55:48.404Z,7.55
2023-03-22T12:57:54.542Z,6.28
2023-03-22T13:00:10.176Z,8.13
2023-03-22T13:02:18.050Z,7.28
2023-03-22T13:04:33.554Z,9.40
2023-03-22T13:06:57.504Z,7.40
2023-03-22T13:09:19.080Z,10.68
2023-03-22T13:13:49.322Z,8.23
2023-03-22T13:16:03.124Z,6.00
2023-03-22T13:18:06.468Z,9.68
2023-03-22T13:20:28.112Z,11.40
2023-03-22T13:25:29.060Z,7.70
2023-03-22T13:27:41.839Z,8.77
2023-03-22T13:29:54.001Z,9.55
2023-03-22T13:32:00.013Z,8.50
2023-03-22T13:34:04.106Z,9.48
2023-03-22T13:36:25.041Z,8.13
2023-03-22T13:38:30.509Z,14.40
2023-03-22T13:40:39.637Z,11.43
2023-03-22T13:42:43.470Z,9.15
2023-03-22T13:44:53.040Z,12.10
2023-03-22T13:47:01.191Z,11.40
2023-03-22T13:49:27.989Z,9.43
2023-03-22T13:51:33.535Z,13.52
2023-03-22T13:53:37.774Z,8.82
2023-03-22T13:56:00.928Z,10.43
2023-03-22T13:58:05.595Z,10.73
2023-03-22T14:00:22.588Z,9.93
2023-03-22T14:02:30.086Z,10.52
2023-03-22T14:04:40.637Z,10.10
2023-03-22T14:06:51.207Z,10.63
2023-03-22T14:08:59.692Z,11.35
2023-03-22T14:11:18.141Z,9.25
2023-03-22T14:13:30.572Z,12.75
2023-03-22T14:15:38.566Z,8.98
2023-03-22T14:17:45.269Z,13.00
2023-03-22T14:19:50.891Z,10.43
